createdAt,value
2018-11-03T00:01:02.026Z,28.95
2018-11-03T00:03:31.405Z,35.77
2018-11-03T00:06:01.134Z,32.23
2018-11-03T00:08:30.432Z,30.83
2018-11-03T00:11:19.943Z,26.20
2018-11-03T00:13:49.785Z,26.63
2018-11-03T00:16:19.800Z,26.77
2018-11-03T00:18:49.488Z,30.70
2018-11-03T00:21:18.832Z,28.77
2018-11-03T00:23:48.097Z,22.47
2018-11-03T00:26:17.730Z,30.17
2018-11-03T00:28:47.510Z,20.37
2018-11-03T00:31:16.981Z,25.57
2018-11-03T00:33:46.559Z,25.50
2018-11-03T00:36:16.361Z,28.20
2018-11-03T00:38:45.842Z,23.80
2018-11-03T00:41:15.042Z,23.77
2018-11-03T00:43:44.725Z,28.00
2018-11-03T00:46:14.193Z,25.70
2018-11-03T00:48:43.686Z,27.47
2018-11-03T00:51:13.505Z,24.50
2018-11-03T00:53:42.982Z,27.43
2018-11-03T00:56:12.717Z,27.70
2018-11-03T00:58:42.209Z,28.20
2018-11-03T01:01:11.676Z,29.00
2018-11-03T01:03:41.154Z,25.97
2018-11-03T01:06:10.697Z,30.37
2018-11-03T01:08:39.842Z,28.03
2018-11-03T01:11:09.610Z,25.88
2018-11-03T01:13:39.085Z,27.53
2018-11-03T01:16:08.676Z,24.17
2018-11-03T01:18:38.151Z,26.23
2018-11-03T01:21:07.950Z,24.37
2018-11-03T01:23:37.731Z,26.70
2018-11-03T01:26:07.181Z,22.13
2018-11-03T01:28:36.822Z,24.70
2018-11-03T01:31:06.265Z,23.90
2018-11-03T01:33:35.822Z,21.40
2018-11-03T01:36:05.871Z,22.42
2018-11-03T01:38:35.354Z,27.53
2018-11-03T01:41:05.111Z,22.25
2018-11-03T01:43:34.850Z,24.87
2018-11-03T01:46:04.099Z,28.63
2018-11-03T01:48:33.814Z,23.17
2018-11-03T01:51:03.575Z,23.38
2018-11-03T01:53:33.041Z,24.20
2018-11-03T01:56:02.796Z,26.93
2018-11-03T01:58:32.273Z,21.93
2018-11-03T02:01:01.960Z,22.22
2018-11-03T02:03:31.718Z,26.10
2018-11-03T02:06:01.206Z,25.17
2018-11-03T02:08:30.960Z,25.17
2018-11-03T02:11:00.205Z,33.20
2018-11-03T02:13:29.765Z,25.52
2018-11-03T02:15:59.245Z,28.73
2018-11-03T02:18:28.891Z,24.67
2018-11-03T02:20:58.886Z,27.45
2018-11-03T02:23:28.155Z,29.83
2018-11-03T02:25:57.706Z,29.87
2018-11-03T02:28:27.176Z,26.13
2018-11-03T02:30:56.950Z,29.07
2018-11-03T02:33:32.050Z,26.63
2018-11-03T02:36:01.302Z,30.77
2018-11-03T02:38:31.076Z,28.93
2018-11-03T02:41:00.349Z,27.00
2018-11-03T02:43:29.962Z,27.87
2018-11-03T02:45:59.436Z,24.63
2018-11-03T02:48:28.897Z,25.30
2018-11-03T02:50:59.022Z,26.37
2018-11-03T02:53:28.489Z,27.13
2018-11-03T02:55:58.258Z,29.93
2018-11-03T02:58:28.077Z,26.87
2018-11-03T03:00:57.839Z,26.02
2018-11-03T03:03:27.318Z,24.37
2018-11-03T03:05:57.235Z,32.60
2018-11-03T03:08:26.662Z,24.02
2018-11-03T03:10:56.379Z,25.50
2018-11-03T03:13:25.377Z,26.37
2018-11-03T03:15:55.166Z,28.23
2018-11-03T03:18:24.923Z,23.98
2018-11-03T03:20:54.678Z,27.10
2018-11-03T03:23:24.198Z,24.63
2018-11-03T03:25:53.958Z,26.60
2018-11-03T03:28:23.437Z,25.33
2018-11-03T03:30:53.433Z,22.83
2018-11-03T03:33:23.009Z,26.50
2018-11-03T03:35:53.440Z,21.90
2018-11-03T03:38:23.218Z,20.87
2018-11-03T03:40:53.574Z,22.95
2018-11-03T03:43:23.154Z,21.03
2018-11-03T03:45:53.405Z,24.92
2018-11-03T03:48:23.282Z,27.70
2018-11-03T03:50:53.477Z,24.72
2018-11-03T03:53:23.226Z,24.30
2018-11-03T03:55:53.101Z,23.52
2018-11-03T03:58:22.572Z,28.77
2018-11-03T04:00:53.695Z,28.73
2018-11-03T04:03:23.177Z,29.67
2018-11-03T04:05:53.436Z,26.80
2018-11-03T04:08:23.180Z,24.40
2018-11-03T04:10:52.633Z,29.20
2018-11-03T04:13:22.430Z,31.00
2018-11-03T04:15:53.549Z,33.20
2018-11-03T04:18:23.124Z,31.60
2018-11-03T04:20:53.517Z,28.62
2018-11-03T04:23:22.817Z,33.70
2018-11-03T04:25:53.557Z,30.97
2018-11-03T04:28:23.268Z,28.70
2018-11-03T04:30:53.250Z,33.58
2018-11-03T04:33:22.723Z,30.50
2018-11-03T04:35:53.209Z,28.98
2018-11-03T04:38:22.678Z,30.97
2018-11-03T04:40:53.894Z,32.90
2018-11-03T04:43:23.181Z,33.48
2018-11-03T04:45:53.555Z,32.05
2018-11-03T04:48:23.176Z,35.07
2018-11-03T04:50:53.563Z,34.92
2018-11-03T04:53:23.389Z,31.67
2018-11-03T04:55:53.574Z,31.93
2018-11-03T04:58:23.610Z,31.43
2018-11-03T05:00:53.566Z,28.97
2018-11-03T05:03:23.226Z,31.30
2018-11-03T05:05:53.538Z,29.42
2018-11-03T05:08:23.361Z,26.63
2018-11-03T05:10:53.517Z,28.62
2018-11-03T05:13:23.342Z,26.80
2018-11-03T05:15:53.682Z,27.85
2018-11-03T05:18:24.241Z,32.42
2018-11-03T05:20:53.739Z,35.03
2018-11-03T05:23:23.458Z,30.53
2018-11-03T05:25:53.815Z,33.08
2018-11-03T05:28:23.334Z,37.70
2018-11-03T05:30:53.708Z,36.65
2018-11-03T05:33:23.672Z,41.83
2018-11-03T05:35:53.353Z,36.13
2018-11-03T05:38:22.817Z,41.40
2018-11-03T05:40:54.237Z,44.33
2018-11-03T05:43:23.712Z,45.07
2018-11-03T05:45:53.797Z,49.73
2018-11-03T05:48:23.338Z,40.87
2018-11-03T05:50:53.701Z,41.53
2018-11-03T05:53:22.598Z,40.90
2018-11-03T05:55:53.429Z,42.27
2018-11-03T05:58:22.914Z,38.00
2018-11-03T06:00:53.659Z,36.63
2018-11-03T06:03:23.379Z,34.87
2018-11-03T06:05:53.795Z,40.58
2018-11-03T06:08:23.594Z,38.47
2018-11-03T06:10:54.412Z,45.95
2018-11-03T06:13:24.222Z,37.17
2018-11-03T06:15:53.786Z,44.67
2018-11-03T06:18:23.361Z,45.38
2018-11-03T06:20:53.737Z,48.65
2018-11-03T06:23:23.857Z,55.90
2018-11-03T06:25:53.927Z,55.23
2018-11-03T06:28:23.250Z,54.83
2018-11-03T06:30:53.778Z,50.00
2018-11-03T06:33:23.467Z,58.00
2018-11-03T06:35:53.800Z,49.23
2018-11-03T06:38:24.001Z,48.63
2018-11-03T06:40:53.890Z,52.13
2018-11-03T06:43:23.527Z,37.13
2018-11-03T06:45:53.527Z,34.10
2018-11-03T06:48:22.997Z,36.33
2018-11-03T06:50:53.794Z,36.93
2018-11-03T06:53:23.829Z,35.50
2018-11-03T06:55:54.850Z,33.03
2018-11-03T06:58:24.249Z,34.20
2018-11-03T07:00:53.895Z,36.80
2018-11-03T07:03:23.569Z,42.83
2018-11-03T07:05:53.862Z,41.35
2018-11-03T07:08:23.617Z,45.23
2018-11-03T07:10:53.901Z,40.17
2018-11-03T07:13:23.674Z,41.70
2018-11-03T07:15:53.933Z,51.18
2018-11-03T07:18:23.598Z,58.77
2018-11-03T07:20:53.940Z,39.10
2018-11-03T07:23:23.735Z,31.03
2018-11-03T07:25:54.346Z,22.73
2018-11-03T07:28:23.818Z,21.40
2018-11-03T07:30:53.998Z,19.87
2018-11-03T07:33:23.570Z,19.73
2018-11-03T07:35:53.913Z,21.68
2018-11-03T07:38:23.664Z,20.52
2018-11-03T07:40:54.040Z,20.40
2018-11-03T07:43:23.725Z,20.40
2018-11-03T07:45:53.930Z,19.62
2018-11-03T07:48:23.388Z,19.40
2018-11-03T07:50:53.965Z,19.17
2018-11-03T07:53:23.255Z,19.40
2018-11-03T07:55:53.761Z,20.90
2018-11-03T07:58:23.238Z,22.93
2018-11-03T08:00:54.262Z,19.07
2018-11-03T08:03:23.534Z,22.40
2018-11-03T08:05:54.080Z,19.60
2018-11-03T08:08:24.090Z,21.40
2018-11-03T08:10:53.921Z,20.87
2018-11-03T08:13:23.741Z,21.47
2018-11-03T08:15:56.053Z,21.15
2018-11-03T08:18:25.647Z,20.60
2018-11-03T08:20:55.410Z,21.67
2018-11-03T08:23:24.885Z,20.97
2018-11-03T08:25:54.378Z,23.27
2018-11-03T08:28:23.551Z,23.50
2018-11-03T08:30:54.211Z,22.17
2018-11-03T08:33:23.796Z,21.80
2018-11-03T08:35:54.050Z,22.48
2018-11-03T08:38:23.843Z,21.62
2018-11-03T08:40:53.892Z,21.05
2018-11-03T08:43:28.205Z,21.33
2018-11-03T08:45:58.630Z,24.80
2018-11-03T08:48:28.177Z,20.57
2018-11-03T08:50:58.043Z,23.47
2018-11-03T08:53:27.182Z,21.43
2018-11-03T08:55:56.965Z,22.07
2018-11-03T08:58:26.726Z,22.60
2018-11-03T09:00:56.241Z,22.63
2018-11-03T09:03:25.849Z,21.13
2018-11-03T09:05:55.642Z,19.90
2018-11-03T09:08:24.886Z,23.83
2018-11-03T09:10:54.446Z,20.97
2018-11-03T09:13:23.946Z,21.10
2018-11-03T09:15:53.881Z,22.07
2018-11-03T09:18:23.375Z,19.63
2018-11-03T09:20:54.374Z,21.15
2018-11-03T09:23:24.026Z,18.53
2018-11-03T09:25:53.734Z,20.43
2018-11-03T09:28:23.177Z,22.10
2018-11-03T09:30:54.239Z,23.05
2018-11-03T09:33:24.010Z,20.70
2018-11-03T09:35:53.890Z,19.80
2018-11-03T09:38:23.373Z,19.17
2018-11-03T09:40:55.675Z,20.43
2018-11-03T09:43:25.199Z,19.03
2018-11-03T09:45:54.922Z,19.02
2018-11-03T09:48:24.413Z,18.70
2018-11-03T09:50:54.294Z,19.90
2018-11-03T09:53:24.070Z,18.67
2018-11-03T09:55:54.414Z,17.77
2018-11-03T09:58:24.380Z,18.93
2018-11-03T10:00:54.301Z,18.07
2018-11-03T10:03:24.087Z,18.15
2018-11-03T10:05:54.338Z,21.00
2018-11-03T10:08:23.811Z,18.57
2018-11-03T10:10:54.447Z,17.82
2018-11-03T10:13:23.958Z,19.23
2018-11-03T10:15:54.374Z,16.85
2018-11-03T10:18:24.322Z,16.80
2018-11-03T10:20:54.353Z,15.90
2018-11-03T10:23:24.194Z,19.10
2018-11-03T10:25:54.386Z,17.20
2018-11-03T10:28:24.369Z,16.53
2018-11-03T10:30:54.485Z,15.03
2018-11-03T10:33:24.322Z,17.47
2018-11-03T10:35:54.521Z,16.17
2018-11-03T10:38:24.170Z,16.63
2018-11-03T10:40:54.184Z,15.75
2018-11-03T10:43:23.687Z,16.50
2018-11-03T10:45:54.482Z,14.70
2018-11-03T10:48:24.113Z,17.30
2018-11-03T10:50:54.658Z,14.75
2018-11-03T10:53:24.222Z,16.70
2018-11-03T10:55:54.506Z,15.03
2018-11-03T10:58:29.858Z,14.70
2018-11-03T11:00:59.406Z,13.93
2018-11-03T11:06:30.754Z,13.67
2018-11-03T11:12:12.298Z,14.03
2018-11-03T11:14:41.912Z,13.17
2018-11-03T11:17:11.397Z,13.27
2018-11-03T11:19:43.012Z,12.80
2018-11-03T11:22:12.525Z,13.83
2018-11-03T11:24:41.806Z,12.73
2018-11-03T11:27:11.500Z,11.73
2018-11-03T11:29:41.258Z,13.23
2018-11-03T11:32:10.739Z,12.37
2018-11-03T11:34:40.336Z,12.60
2018-11-03T11:37:09.779Z,12.20
2018-11-03T11:39:39.250Z,11.53
2018-11-03T11:42:09.321Z,11.75
2018-11-03T11:44:38.801Z,11.37
2018-11-03T11:47:08.543Z,13.67
2018-11-03T11:49:37.812Z,13.20
2018-11-03T11:52:07.554Z,12.83
2018-11-03T11:54:37.332Z,12.60
2018-11-03T11:57:06.799Z,15.70
2018-11-03T11:59:36.452Z,12.87
2018-11-03T12:02:05.569Z,12.10
2018-11-03T12:04:35.017Z,12.10
2018-11-03T12:07:04.285Z,10.30
2018-11-03T12:09:34.033Z,10.53
2018-11-03T12:12:03.302Z,11.07
2018-11-03T12:14:32.845Z,10.10
2018-11-03T12:17:02.613Z,10.78
2018-11-03T12:19:32.071Z,9.20
2018-11-03T12:22:02.178Z,7.33
2018-11-03T12:24:31.728Z,7.13
2018-11-03T12:27:01.161Z,6.40
2018-11-03T12:29:31.438Z,6.10
2018-11-03T12:32:01.356Z,7.60
2018-11-03T12:34:30.810Z,6.13
2018-11-03T12:37:00.279Z,6.00
2018-11-03T12:39:29.818Z,5.80
2018-11-03T12:41:59.291Z,6.40
2018-11-03T12:44:28.863Z,5.70
2018-11-03T12:46:58.641Z,3.15
2018-11-03T12:49:27.892Z,7.40
2018-11-03T12:51:57.642Z,5.40
2018-11-03T12:54:27.102Z,6.03
2018-11-03T12:56:56.971Z,4.33
2018-11-03T12:59:26.835Z,4.43
2018-11-03T13:01:56.041Z,6.00
2018-11-03T13:04:25.869Z,6.17
2018-11-03T13:06:54.978Z,5.23
2018-11-03T13:09:24.254Z,6.70
2018-11-03T13:11:55.078Z,7.85
2018-11-03T13:14:24.542Z,8.50
2018-11-03T13:16:55.494Z,7.08
2018-11-03T13:19:24.830Z,7.60
2018-11-03T13:21:55.111Z,6.60
2018-11-03T13:24:24.090Z,7.07
2018-11-03T13:26:53.366Z,7.60
2018-11-03T13:29:22.965Z,6.53
2018-11-03T13:31:55.433Z,7.13
2018-11-03T13:34:24.846Z,8.27
2018-11-03T13:36:55.130Z,7.30
2018-11-03T13:39:24.682Z,6.50
2018-11-03T13:41:55.342Z,6.67
2018-11-03T13:44:24.893Z,10.40
2018-11-03T13:46:54.194Z,9.03
2018-11-03T13:49:23.505Z,8.60
2018-11-03T13:51:53.089Z,7.07
2018-11-03T13:54:22.350Z,8.63
2018-11-03T13:56:51.685Z,7.13
2018-11-03T13:59:21.173Z,6.97
2018-11-03T14:01:50.418Z,7.40
2018-11-03T14:04:20.342Z,9.38
2018-11-03T14:06:49.958Z,6.97
2018-11-03T14:09:19.225Z,4.47
2018-11-03T14:11:48.573Z,4.83
2018-11-03T14:14:18.153Z,7.40
2018-11-03T14:16:47.146Z,6.60
2018-11-03T14:19:16.147Z,23.40
2018-11-03T14:21:45.141Z,13.63
2018-11-03T14:24:14.423Z,4.30
2018-11-03T14:26:43.722Z,4.20
2018-11-03T14:29:13.401Z,5.50
2018-11-03T14:31:43.070Z,7.05
2018-11-03T14:34:12.409Z,5.80
2018-11-03T14:36:41.975Z,6.72
2018-11-03T14:39:11.158Z,5.83
2018-11-03T14:41:40.413Z,6.17
2018-11-03T14:44:10.283Z,6.20
2018-11-03T14:46:39.321Z,5.60
2018-11-03T14:49:09.074Z,5.45
2018-11-03T14:51:38.013Z,8.00
2018-11-03T14:54:07.373Z,6.20
2018-11-03T14:56:36.678Z,6.43
2018-11-03T14:59:06.074Z,6.97
2018-11-03T15:01:35.705Z,5.43
2018-11-03T15:04:04.561Z,7.50
2018-11-03T15:06:34.066Z,8.53
2018-11-03T15:09:03.125Z,7.25
2018-11-03T15:11:32.394Z,9.00
2018-11-03T15:14:01.559Z,8.73
2018-11-03T15:16:31.166Z,8.13
2018-11-03T15:19:00.501Z,8.10
2018-11-03T15:21:30.037Z,9.15
2018-11-03T15:23:59.451Z,8.83
2018-11-03T15:26:28.729Z,10.93
2018-11-03T15:28:58.286Z,13.70
2018-11-03T15:31:27.572Z,9.20
2018-11-03T15:33:57.725Z,11.05
2018-11-03T15:36:26.945Z,8.53
2018-11-03T15:38:56.485Z,8.13
2018-11-03T15:41:25.779Z,9.30
2018-11-03T15:43:55.785Z,8.47
2018-11-03T15:46:25.256Z,8.00
2018-11-03T15:48:55.601Z,8.40
2018-11-03T15:51:25.191Z,8.50
2018-11-03T15:53:55.718Z,9.50
2018-11-03T15:56:25.223Z,8.03
2018-11-03T15:58:57.082Z,10.05
2018-11-03T16:01:26.633Z,55.77
2018-11-03T16:04:08.082Z,32.20
2018-11-03T16:06:49.670Z,23.50
2018-11-03T16:09:28.594Z,16.07
2018-11-03T16:11:58.563Z,14.47
2018-11-03T16:14:28.254Z,11.20
2018-11-03T16:16:57.217Z,14.50
2018-11-03T16:19:26.577Z,13.03
2018-11-03T16:21:56.046Z,12.30
2018-11-03T16:24:25.386Z,12.20
2018-11-03T16:26:55.639Z,11.97
2018-11-03T16:29:25.275Z,15.67
2018-11-03T16:31:55.405Z,10.85
2018-11-03T16:34:24.824Z,11.47
2018-11-03T16:36:55.431Z,12.90
2018-11-03T16:39:24.717Z,12.00
2018-11-03T16:41:55.361Z,25.37
2018-11-03T16:44:24.390Z,36.23
2018-11-03T16:46:53.674Z,18.30
2018-11-03T16:49:22.946Z,22.23
2018-11-03T16:51:52.329Z,24.67
2018-11-03T16:54:21.046Z,15.30
2018-11-03T16:56:50.521Z,15.43
2018-11-03T16:59:19.782Z,12.80
2018-11-03T17:01:49.058Z,12.50
2018-11-03T17:04:19.306Z,180.13
2018-11-03T17:06:48.648Z,115.47
2018-11-03T17:09:18.113Z,55.37
2018-11-03T17:11:47.509Z,17.13
2018-11-03T17:14:16.774Z,13.27
2018-11-03T17:16:46.042Z,14.33
2018-11-03T17:19:15.538Z,18.70
2018-11-03T17:21:44.822Z,14.40
2018-11-03T17:24:14.426Z,13.33
2018-11-03T17:26:43.690Z,11.63
2018-11-03T17:29:13.214Z,13.38
2018-11-03T17:31:42.533Z,12.10
2018-11-03T17:34:18.202Z,10.40
2018-11-03T17:36:47.512Z,16.77
2018-11-03T17:39:16.778Z,10.97
2018-11-03T17:41:46.341Z,11.48
2018-11-03T17:44:15.696Z,12.60
2018-11-03T17:46:45.090Z,14.20
2018-11-03T17:49:14.781Z,10.30
2018-11-03T17:51:44.330Z,11.97
2018-11-03T17:54:13.595Z,13.93
2018-11-03T17:56:42.877Z,41.30
2018-11-03T17:59:12.735Z,34.35
2018-11-03T18:01:42.145Z,31.60
2018-11-03T18:04:11.730Z,27.55
2018-11-03T18:06:41.684Z,30.27
2018-11-03T18:09:10.764Z,27.27
2018-11-03T18:11:40.318Z,20.17
2018-11-03T18:14:09.780Z,19.42
2018-11-03T18:16:39.529Z,17.87
2018-11-03T18:19:09.007Z,18.27
2018-11-03T18:21:38.629Z,18.80
2018-11-03T18:24:08.090Z,16.30
2018-11-03T18:26:37.705Z,16.30
2018-11-03T18:29:07.106Z,19.77
2018-11-03T18:31:36.685Z,21.30
2018-11-03T18:34:05.625Z,17.07
2018-11-03T18:36:34.926Z,22.20
2018-11-03T18:39:03.998Z,19.85
2018-11-03T18:41:33.080Z,18.80
2018-11-03T18:44:02.782Z,16.03
2018-11-03T18:46:31.877Z,19.63
2018-11-03T18:49:02.953Z,16.55
2018-11-03T18:51:32.239Z,16.67
2018-11-03T18:54:01.246Z,15.27
2018-11-03T18:56:30.649Z,14.03
2018-11-03T18:58:59.955Z,13.90
2018-11-03T19:01:28.925Z,18.93
2018-11-03T19:03:58.481Z,15.23
2018-11-03T19:06:28.023Z,16.90
2018-11-03T19:08:57.893Z,13.93
2018-11-03T19:11:27.193Z,14.07
2018-11-03T19:13:56.819Z,15.38
2018-11-03T19:16:26.282Z,15.53
2018-11-03T19:18:57.015Z,11.77
2018-11-03T19:21:26.314Z,14.43
2018-11-03T19:23:56.205Z,13.23
2018-11-03T19:26:25.657Z,14.03
2018-11-03T19:28:56.310Z,14.10
2018-11-03T19:31:25.866Z,18.13
2018-11-03T19:33:56.175Z,18.57
2018-11-03T19:36:25.789Z,14.67
2018-11-03T19:38:56.034Z,12.73
2018-11-03T19:41:25.363Z,13.27
2018-11-03T19:43:56.044Z,13.67
2018-11-03T19:46:25.356Z,14.23
2018-11-03T19:48:56.306Z,12.70
2018-11-03T19:51:25.858Z,14.10
2018-11-03T19:53:56.189Z,13.43
2018-11-03T19:56:26.099Z,16.63
2018-11-03T19:58:56.319Z,15.23
2018-11-03T20:01:26.239Z,14.20
2018-11-03T20:03:56.198Z,13.63
2018-11-03T20:06:25.767Z,16.60
2018-11-03T20:09:08.625Z,14.00
2018-11-03T20:11:37.898Z,14.90
2018-11-03T20:14:07.372Z,16.23
2018-11-03T20:16:36.771Z,15.50
2018-11-03T20:19:06.051Z,14.03
2018-11-03T20:21:35.334Z,16.27
2018-11-03T20:24:04.370Z,17.90
2018-11-03T20:26:33.886Z,14.90
2018-11-03T20:29:03.453Z,15.63
2018-11-03T20:31:33.301Z,17.20
2018-11-03T20:34:03.174Z,16.77
2018-11-03T20:36:32.890Z,21.17
2018-11-03T20:39:02.157Z,16.07
2018-11-03T20:41:31.451Z,16.43
2018-11-03T20:44:01.077Z,19.40
2018-11-03T20:46:30.330Z,17.13
2018-11-03T20:48:59.114Z,15.30
2018-11-03T20:51:28.382Z,15.40
2018-11-03T20:53:58.436Z,15.23
2018-11-03T20:56:28.114Z,15.80
2018-11-03T20:58:57.657Z,13.70
2018-11-03T21:01:27.365Z,16.43
2018-11-03T21:03:56.931Z,17.13
2018-11-03T21:06:26.203Z,15.10
2018-11-03T21:08:56.383Z,14.40
2018-11-03T21:11:25.961Z,15.20
2018-11-03T21:13:56.267Z,16.12
2018-11-03T21:16:25.619Z,14.93
2018-11-03T21:18:55.382Z,15.60
2018-11-03T21:21:25.001Z,14.03
2018-11-03T21:23:54.115Z,14.83
2018-11-03T21:26:23.717Z,13.17
2018-11-03T21:28:52.951Z,15.17
2018-11-03T21:31:22.218Z,13.93
2018-11-03T21:33:51.498Z,14.03
2018-11-03T21:36:20.950Z,15.87
2018-11-03T21:38:49.934Z,16.17
2018-11-03T21:41:19.361Z,14.70
2018-11-03T21:43:48.642Z,16.77
2018-11-03T21:46:18.441Z,16.87
2018-11-03T21:48:48.057Z,14.93
2018-11-03T21:51:17.095Z,15.87
2018-11-03T21:53:46.373Z,20.70
2018-11-03T21:56:15.932Z,17.60
2018-11-03T21:58:45.689Z,15.00
2018-11-03T22:01:14.838Z,15.87
2018-11-03T22:03:44.111Z,14.53
2018-11-03T22:06:13.731Z,17.20
2018-11-03T22:08:43.182Z,15.00
2018-11-03T22:11:12.959Z,15.50
2018-11-03T22:13:42.338Z,14.93
2018-11-03T22:16:11.622Z,14.50
2018-11-03T22:18:41.204Z,17.70
2018-11-03T22:21:10.687Z,15.43
2018-11-03T22:23:40.190Z,17.93
2018-11-03T22:26:09.482Z,14.00
2018-11-03T22:28:38.413Z,15.83
2018-11-03T22:31:07.719Z,16.57
2018-11-03T22:33:37.321Z,15.70
2018-11-03T22:36:06.589Z,15.23
2018-11-03T22:38:36.151Z,15.83
2018-11-03T22:41:05.387Z,14.70
2018-11-03T22:43:34.666Z,20.70
2018-11-03T22:46:03.942Z,17.50
2018-11-03T22:48:33.412Z,15.73
2018-11-03T22:51:02.777Z,16.80
2018-11-03T22:53:32.357Z,21.67
2018-11-03T22:56:01.308Z,17.20
2018-11-03T22:58:30.586Z,17.63
2018-11-03T23:00:59.845Z,17.97
2018-11-03T23:03:29.361Z,16.77
2018-11-03T23:05:58.843Z,16.30
2018-11-03T23:08:27.959Z,15.50
2018-11-03T23:10:57.513Z,16.53
2018-11-03T23:13:26.873Z,15.57
2018-11-03T23:15:56.739Z,16.50
2018-11-03T23:18:26.305Z,17.32
2018-11-03T23:20:56.458Z,17.82
2018-11-03T23:23:25.734Z,15.73
2018-11-03T23:25:56.649Z,19.35
2018-11-03T23:28:25.931Z,14.57
2018-11-03T23:30:56.822Z,18.82
2018-11-03T23:33:26.399Z,17.13
2018-11-03T23:35:56.745Z,18.80
2018-11-03T23:38:25.686Z,21.80
2018-11-03T23:40:54.626Z,18.20
2018-11-03T23:43:23.577Z,23.23
2018-11-03T23:45:52.846Z,21.37
2018-11-03T23:48:22.447Z,19.93
2018-11-03T23:50:51.724Z,19.93
2018-11-03T23:53:21.500Z,20.48
2018-11-03T23:55:51.002Z,20.07
2018-11-03T23:58:20.186Z,21.50
